Time;durP1;ratioP1;P1;durP2;ratioP2;P2;SDS_P1;SDS_P2;PMS_P1;PMS_P2;Temp;Humidity;BMP_temperature;BMP_pressure;BME280_temperature;BME280_humidity;BME280_pressure;Samples;Min_cycle;Max_cycle;Signal;HPM_P1;HPM_P2
2022/03/10 00:02:07;;;;;;;32.15;12.15;;;;;;;3.06;51.51;100386.91;4454862;32;34677;-81
2022/03/10 00:04:54;;;;;;;20.55;11.07;;;;;;;3.15;51.11;100394.38;4443007;32;34219;-81
2022/03/10 00:07:40;;;;;;;21.33;10.35;;;;;;;3.00;50.67;100391.41;4442916;32;35489;-81
2022/03/10 00:10:27;;;;;;;23.98;10.75;;;;;;;2.91;50.90;100393.69;4453768;32;35496;-81
2022/03/10 00:13:13;;;;;;;22.48;10.88;;;;;;;2.81;51.47;100396.19;4453518;32;35551;-81
2022/03/10 00:16:00;;;;;;;20.12;9.63;;;;;;;2.64;52.01;100404.25;4454835;32;34194;-81
2022/03/10 00:18:46;;;;;;;25.88;10.90;;;;;;;2.39;52.48;100395.59;4442893;32;35662;-80
2022/03/10 00:21:33;;;;;;;25.02;10.57;;;;;;;2.31;53.03;100404.09;4442707;32;34975;-81
2022/03/10 00:24:19;;;;;;;26.75;11.48;;;;;;;2.32;53.10;100403.84;4454653;32;34681;-81
2022/03/10 00:27:06;;;;;;;23.58;10.95;;;;;;;2.21;53.53;100402.81;4442850;32;35075;-81
2022/03/10 00:29:52;;;;;;;24.35;10.63;;;;;;;2.23;53.07;100406.09;4443014;32;34639;-81
2022/03/10 00:32:50;;;;;;;19.33;10.40;;;;;;;2.31;53.08;100418.44;4454440;32;35100;-80
2022/03/10 00:35:36;;;;;;;24.95;10.93;;;;;;;2.24;53.08;100423.97;4442661;32;34966;-80
2022/03/10 00:38:23;;;;;;;23.50;9.98;;;;;;;1.07;56.35;100429.22;4454812;32;34377;-81
2022/03/10 00:41:09;;;;;;;22.67;10.68;;;;;;;0.77;57.74;100429.19;4454428;32;34818;-80
2022/03/10 00:43:56;;;;;;;21.25;9.50;;;;;;;1.28;55.86;100436.81;4454473;32;35075;-80
2022/03/10 00:46:43;;;;;;;21.25;9.05;;;;;;;0.19;59.67;100438.56;4437343;32;34646;-81
2022/03/10 00:49:30;;;;;;;21.10;9.48;;;;;;;0.98;56.82;100438.69;4449756;32;35444;-80
2022/03/10 00:52:16;;;;;;;19.92;8.60;;;;;;;0.21;58.64;100448.06;4449807;32;35113;-80
2022/03/10 00:55:03;;;;;;;18.77;8.45;;;;;;;0.96;56.86;100449.69;4459745;32;35472;-81
2022/03/10 00:57:49;;;;;;;17.75;7.80;;;;;;;1.42;54.83;100452.78;4446608;32;35105;-80
2022/03/10 01:00:35;;;;;;;18.98;8.82;;;;;;;1.24;54.85;100459.91;4445491;32;34536;-80
2022/03/10 01:03:23;;;;;;;17.80;8.30;;;;;;;1.90;53.50;100463.44;4443067;32;34557;-80
2022/03/10 01:06:10;;;;;;;18.75;8.40;;;;;;;2.10;52.43;100463.09;4455845;32;35143;-80
2022/03/10 01:08:56;;;;;;;17.42;8.45;;;;;;;2.11;52.13;100467.47;4443403;32;34570;-81
2022/03/10 01:11:43;;;;;;;16.27;7.90;;;;;;;2.16;51.87;100473.00;4442834;32;34095;-81
2022/03/10 01:14:30;;;;;;;17.62;8.70;;;;;;;2.08;52.06;100476.06;4454890;32;35618;-81
2022/03/10 01:17:17;;;;;;;20.50;9.85;;;;;;;2.07;52.15;100482.50;4454870;32;35976;-81
2022/03/10 01:20:04;;;;;;;20.00;10.57;;;;;;;2.02;52.48;100490.50;4455053;32;35116;-81
2022/03/10 01:22:51;;;;;;;24.45;10.50;;;;;;;1.95;52.75;100487.09;4445522;32;35336;-80
2022/03/10 01:25:38;;;;;;;22.37;10.10;;;;;;;1.80;53.61;100479.44;4445299;32;34676;-81
2022/03/10 01:28:24;;;;;;;20.77;10.35;;;;;;;1.67;54.08;100475.03;4445689;32;36092;-81
2022/03/10 01:31:11;;;;;;;18.87;9.52;;;;;;;1.85;53.98;100471.47;4460512;32;35608;-80
2022/03/10 01:33:57;;;;;;;21.33;9.95;;;;;;;1.84;53.93;100477.09;4461269;32;35353;-81
2022/03/10 01:36:44;;;;;;;22.60;10.75;;;;;;;2.01;53.58;100483.44;4462319;32;34860;-81
2022/03/10 01:39:32;;;;;;;22.15;9.90;;;;;;;1.83;54.09;100486.25;4449985;32;36042;-81
2022/03/10 01:42:19;;;;;;;21.35;10.90;;;;;;;2.07;53.37;100481.69;4452948;32;35512;-80
2022/03/10 01:45:06;;;;;;;21.00;10.48;;;;;;;1.99;53.66;100488.25;4454834;32;34330;-80
2022/03/10 01:47:55;;;;;;;24.12;10.57;;;;;;;1.85;53.80;100500.34;4454588;32;34738;-80
2022/03/10 01:50:41;;;;;;;20.40;9.80;;;;;;;1.42;55.96;100498.69;4463917;32;35430;-80
2022/03/10 01:53:27;;;;;;;23.62;11.95;;;;;;;1.69;55.08;100501.84;4442053;32;35601;-80
2022/03/10 01:56:14;;;;;;;23.42;11.15;;;;;;;1.72;55.25;100507.59;4452123;32;34935;-80
2022/03/10 01:59:02;;;;;;;32.60;14.77;;;;;;;1.63;55.44;100506.28;4450957;32;34960;-80
2022/03/10 02:01:49;;;;;;;36.30;16.67;;;;;;;1.75;55.33;100515.25;4449264;32;36347;-80
2022/03/10 02:04:36;;;;;;;32.85;16.50;;;;;;;1.77;55.78;100507.75;4461142;32;35598;-80
2022/03/10 02:10:30;;;;;;;27.58;12.63;;;;;;;1.35;58.19;100513.12;4463425;32;35282;-80
2022/03/10 02:13:16;;;;;;;30.30;13.02;;;;;;;1.76;57.51;100521.47;4449873;32;35417;-80
2022/03/10 02:19:08;;;;;;;24.50;11.80;;;;;;;1.82;58.30;100523.25;4458582;32;34765;-80
2022/03/10 02:21:57;;;;;;;28.02;12.23;;;;;;;1.08;61.41;100533.41;4445744;32;34692;-80
2022/03/10 02:24:44;;;;;;;27.40;12.32;;;;;;;0.75;60.93;100523.84;4434275;32;35107;-80
2022/03/10 02:27:30;;;;;;;22.62;11.77;;;;;;;1.09;59.65;100535.06;4457186;32;35757;-80
2022/03/10 02:30:19;;;;;;;22.58;10.60;;;;;;;0.65;61.48;100535.16;4444905;32;35286;-80
2022/03/10 02:33:05;;;;;;;24.65;11.82;;;;;;;1.42;58.24;100544.59;4447064;32;35806;-80
2022/03/10 02:35:51;;;;;;;24.05;11.68;;;;;;;0.84;60.36;100549.47;4441840;32;92000;-80
2022/03/10 02:38:38;;;;;;;26.12;12.60;;;;;;;1.37;58.38;100547.16;4456505;32;34765;-80
2022/03/10 02:41:24;;;;;;;22.45;11.18;;;;;;;1.39;58.27;100550.47;4433382;32;34357;-79
2022/03/10 02:44:10;;;;;;;25.10;11.25;;;;;;;1.08;59.49;100546.91;4444271;32;34730;-79
2022/03/10 02:46:57;;;;;;;23.80;11.40;;;;;;;0.88;60.48;100555.22;4445676;32;34972;-79
2022/03/10 02:49:44;;;;;;;23.87;11.77;;;;;;;0.90;62.04;100561.22;4432970;32;35648;-79
2022/03/10 02:52:30;;;;;;;25.67;12.07;;;;;;;-0.12;64.79;100564.22;4443615;32;34121;-79
2022/03/10 02:55:16;;;;;;;26.30;12.65;;;;;;;0.92;62.65;100556.44;4455321;32;35648;-79
2022/03/10 02:58:03;;;;;;;21.73;10.57;;;;;;;-0.94;68.92;100568.59;4455344;32;34980;-79
2022/03/10 03:00:49;;;;;;;24.42;10.13;;;;;;;-0.07;65.61;100566.25;4454485;32;35566;-79
2022/03/10 03:03:36;;;;;;;23.02;10.25;;;;;;;0.90;61.47;100570.16;4443500;32;34142;-79
2022/03/10 03:06:22;;;;;;;21.50;10.60;;;;;;;1.30;59.37;100580.47;4443504;32;34811;-79
2022/03/10 03:09:09;;;;;;;22.58;9.98;;;;;;;0.75;61.82;100582.38;4454432;32;34898;-79
2022/03/10 03:11:56;;;;;;;20.73;10.82;;;;;;;1.26;60.55;100575.78;4455094;32;34680;-79
2022/03/10 03:14:42;;;;;;;22.00;10.70;;;;;;;1.60;59.43;100582.41;4443232;32;35113;-79
2022/03/10 03:17:28;;;;;;;23.25;10.15;;;;;;;1.45;59.69;100588.22;4443357;32;35570;-79
2022/03/10 03:20:15;;;;;;;23.77;10.40;;;;;;;-0.17;65.02;100601.78;4443417;32;35949;-79
2022/03/10 03:23:02;;;;;;;19.65;10.07;;;;;;;1.18;60.72;100589.56;4454226;32;34809;-79
2022/03/10 03:25:48;;;;;;;22.50;10.55;;;;;;;1.55;59.33;100583.06;4455041;32;35434;-79
2022/03/10 03:28:35;;;;;;;24.37;9.98;;;;;;;1.44;59.54;100583.03;4443216;32;34626;-79
2022/03/10 03:31:21;;;;;;;23.70;11.23;;;;;;;1.65;59.49;100592.50;4443414;32;35022;-79
2022/03/10 03:34:11;;;;;;;21.23;10.82;;;;;;;0.05;65.14;100602.22;4443496;32;34557;-79
2022/03/10 03:36:57;;;;;;;22.23;10.88;;;;;;;-0.63;69.99;100624.34;4438260;32;35120;-79
2022/03/10 03:39:44;;;;;;;24.00;10.65;;;;;;;0.50;67.16;100612.06;4438484;32;35565;-79
2022/03/10 03:42:34;;;;;;;23.15;10.82;;;;;;;1.32;63.09;100616.19;4449257;32;35030;-79
2022/03/10 03:45:20;;;;;;;23.48;10.52;;;;;;;1.66;61.70;100619.31;4439366;32;34726;-79
2022/03/10 03:48:06;;;;;;;21.77;10.65;;;;;;;0.55;64.68;100625.72;4439402;32;34311;-78
2022/03/10 03:50:52;;;;;;;24.77;10.95;;;;;;;0.44;66.49;100640.72;4438376;32;35653;-79
2022/03/10 03:53:39;;;;;;;24.25;10.25;;;;;;;0.55;66.08;100647.28;4438520;32;34988;-79
2022/03/10 03:56:25;;;;;;;21.52;10.02;;;;;;;1.53;61.80;100635.66;4439337;32;35610;-79
2022/03/10 03:59:11;;;;;;;22.77;11.12;;;;;;;1.82;60.45;100642.16;4438237;32;35197;-78
2022/03/10 04:01:58;;;;;;;24.50;11.77;;;;;;;1.73;60.81;100644.34;4439367;32;34650;-79
2022/03/10 04:04:45;;;;;;;23.05;10.73;;;;;;;1.98;60.22;100656.91;4439372;32;34975;-79
2022/03/10 04:07:33;;;;;;;23.48;11.27;;;;;;;2.02;60.11;100658.09;4427794;32;35424;-79
2022/03/10 04:10:20;;;;;;;25.52;11.05;;;;;;;2.16;59.91;100664.97;4439495;32;35126;-79
2022/03/10 04:13:06;;;;;;;24.23;11.12;;;;;;;2.28;59.76;100667.72;4439170;32;35581;-79
2022/03/10 04:15:53;;;;;;;24.58;11.45;;;;;;;2.48;59.30;100664.72;4439172;32;36075;-79
2022/03/10 04:18:39;;;;;;;23.17;12.40;;;;;;;2.45;59.66;100674.09;4439018;32;34917;-79
2022/03/10 04:21:26;;;;;;;24.60;12.00;;;;;;;2.66;59.32;100670.00;4439284;32;34434;-79
2022/03/10 04:24:12;;;;;;;26.65;11.93;;;;;;;2.60;59.73;100675.53;4438400;32;34566;-79
2022/03/10 04:26:59;;;;;;;23.98;11.50;;;;;;;2.78;59.46;100683.56;4438108;32;36050;-79
2022/03/10 04:29:45;;;;;;;26.08;12.15;;;;;;;2.57;60.01;100682.25;4437988;32;35432;-79
2022/03/10 04:32:43;;;;;;;23.08;12.60;;;;;;;2.63;60.63;100685.91;4437953;32;35159;-79
2022/03/10 04:35:29;;;;;;;23.58;12.90;;;;;;;2.64;61.00;100682.94;4438280;32;34642;-79
2022/03/10 04:38:15;;;;;;;25.10;11.82;;;;;;;2.86;61.62;100687.81;4438224;32;35008;-79
2022/03/10 04:41:01;;;;;;;23.38;11.12;;;;;;;2.61;63.71;100688.81;4439064;32;34672;-79
2022/03/10 04:43:48;;;;;;;21.50;11.63;;;;;;;2.60;66.18;100699.91;4439328;32;34307;-78
2022/03/10 04:46:34;;;;;;;26.40;11.50;;;;;;;1.90;70.07;100697.75;4437904;32;35661;-79
2022/03/10 04:49:21;;;;;;;24.52;12.18;;;;;;;1.96;70.66;100708.50;4438912;32;34961;-79
2022/03/10 04:52:07;;;;;;;26.00;12.70;;;;;;;1.62;71.70;100718.03;4438324;32;34546;-79
2022/03/10 04:54:54;;;;;;;26.70;12.98;;;;;;;1.06;74.73;100732.56;4440043;32;34252;-79
2022/03/10 04:57:42;;;;;;;25.48;11.80;;;;;;;0.97;74.01;100736.56;4448344;32;35714;-79
2022/03/10 05:00:28;;;;;;;22.75;11.05;;;;;;;0.90;75.24;100731.22;4437720;32;35009;-78
2022/03/10 05:03:15;;;;;;;20.90;10.60;;;;;;;0.83;75.40;100736.69;4438403;32;34593;-78
2022/03/10 05:06:02;;;;;;;21.15;9.90;;;;;;;0.95;73.48;100750.28;4441237;32;34230;-79
2022/03/10 05:08:50;;;;;;;22.05;9.90;;;;;;;1.26;72.02;100745.87;4440669;32;35607;-79
2022/03/10 05:11:36;;;;;;;19.27;8.68;;;;;;;1.40;69.40;100741.19;4441592;32;35978;-79
2022/03/10 05:14:24;;;;;;;17.80;9.25;;;;;;;1.83;67.40;100751.09;4444111;32;34984;-79
2022/03/10 05:17:10;;;;;;;16.73;8.60;;;;;;;1.90;65.88;100758.03;4442688;32;34446;-79
2022/03/10 05:19:56;;;;;;;19.17;8.73;;;;;;;2.24;64.24;100763.88;4442938;32;35161;-80
2022/03/10 05:22:54;;;;;;;16.12;7.53;;;;;;;1.68;65.42;100768.50;4443947;32;35004;-80
2022/03/10 05:25:41;;;;;;;13.77;6.37;;;;;;;2.69;61.53;100771.56;4444692;32;36398;-80
2022/03/10 05:28:28;;;;;;;14.18;6.40;;;;;;;2.64;59.59;100772.25;4444537;32;34647;-80
2022/03/10 05:31:14;;;;;;;13.48;6.30;;;;;;;3.30;57.00;100770.38;4445998;32;35513;-80
2022/03/10 05:34:03;;;;;;;13.57;5.60;;;;;;;2.98;55.72;100774.44;4446997;32;35351;-80
2022/03/10 05:36:49;;;;;;;13.40;6.22;;;;;;;3.28;54.18;100777.91;4435171;32;34914;-80
2022/03/10 05:39:36;;;;;;;12.57;5.18;;;;;;;2.92;53.97;100778.91;4446703;32;35054;-81
2022/03/10 05:42:22;;;;;;;10.80;4.87;;;;;;;2.13;55.92;100773.56;4449610;32;35187;-80
2022/03/10 05:45:10;;;;;;;8.43;4.07;;;;;;;2.36;53.70;100781.00;4448501;32;35105;-80
2022/03/10 05:47:57;;;;;;;7.95;3.62;;;;;;;2.70;52.36;100784.88;4448294;32;34714;-81
2022/03/10 05:50:43;;;;;;;7.90;3.55;;;;;;;2.62;51.36;100779.78;4444762;32;34595;-80
2022/03/10 05:53:30;;;;;;;7.97;3.70;;;;;;;2.55;51.72;100781.75;4444680;32;35051;-80
2022/03/10 05:56:17;;;;;;;11.00;4.03;;;;;;;2.23;51.29;100787.38;4445853;32;35951;-81
2022/03/10 05:59:05;;;;;;;7.85;3.40;;;;;;;2.74;50.31;100792.53;4445222;32;35540;-81
2022/03/10 06:01:51;;;;;;;8.93;3.62;;;;;;;2.12;51.29;100793.56;4447294;32;34276;-81
2022/03/10 06:04:37;;;;;;;8.43;3.92;;;;;;;2.41;51.51;100799.22;4443380;32;34763;-80
2022/03/10 06:07:23;;;;;;;7.60;3.65;;;;;;;2.62;50.62;100801.44;4446336;32;35866;-81
2022/03/10 06:10:10;;;;;;;7.35;3.15;;;;;;;1.99;51.83;100805.38;4441585;32;34803;-81
2022/03/10 06:12:57;;;;;;;8.23;3.78;;;;;;;2.28;50.52;100805.63;4448695;32;34929;-80
2022/03/10 06:15:43;;;;;;;8.00;3.53;;;;;;;1.71;51.60;100816.69;4446597;32;34960;-80
2022/03/10 06:18:30;;;;;;;8.13;3.30;;;;;;;1.70;51.68;100820.41;4443716;32;35021;-80
2022/03/10 06:21:16;;;;;;;7.15;3.58;;;;;;;1.72;52.12;100837.25;4445264;32;35641;-80
2022/03/10 06:24:03;;;;;;;8.93;3.25;;;;;;;1.85;51.12;100833.59;4433258;32;34126;-81
2022/03/10 06:26:49;;;;;;;7.82;3.60;;;;;;;2.27;50.65;100838.31;4419489;32;34798;-80
2022/03/10 06:29:38;;;;;;;7.28;3.40;;;;;;;2.57;49.45;100839.16;4422189;32;35909;-80
2022/03/10 06:32:25;;;;;;;8.35;3.20;;;;;;;2.51;49.68;100844.69;4427103;32;34814;-80
2022/03/10 06:35:11;;;;;;;6.62;3.20;;;;;;;2.38;49.59;100849.19;4429631;32;34685;-79
2022/03/10 06:38:02;;;;;;;7.65;3.30;;;;;;;2.95;48.24;100846.13;4430679;32;34985;-80
2022/03/10 06:40:49;;;;;;;11.82;3.47;;;;;;;2.15;49.73;100855.28;4414610;32;36042;-80
2022/03/10 06:43:35;;;;;;;8.90;3.83;;;;;;;2.44;49.83;100860.97;4417712;32;34737;-80
2022/03/10 06:46:21;;;;;;;8.95;4.00;;;;;;;2.35;50.20;100868.56;4430643;32;35122;-80
2022/03/10 06:49:08;;;;;;;7.28;3.40;;;;;;;2.63;49.38;100873.44;4432892;32;35172;-80
2022/03/10 06:51:54;;;;;;;8.27;3.72;;;;;;;2.47;50.17;100865.94;4433564;32;35205;-80
2022/03/10 06:54:41;;;;;;;8.95;3.70;;;;;;;2.03;51.41;100870.63;4432311;32;34775;-80
2022/03/10 06:57:28;;;;;;;8.77;4.22;;;;;;;2.62;49.64;100869.09;4433751;32;34699;-80
2022/03/10 07:00:14;;;;;;;13.35;4.37;;;;;;;2.99;48.46;100874.41;4419773;32;34841;-80
2022/03/10 07:03:00;;;;;;;8.80;3.92;;;;;;;2.25;50.60;100882.66;4420662;32;35306;-80
2022/03/10 07:05:46;;;;;;;9.90;4.03;;;;;;;2.35;51.25;100889.41;4421290;32;35095;-80
2022/03/10 07:08:33;;;;;;;8.95;3.80;;;;;;;2.60;50.45;100889.31;4422814;32;34267;-80
2022/03/10 07:11:19;;;;;;;12.18;3.83;;;;;;;3.30;48.79;100894.13;4433570;32;34876;-79
2022/03/10 07:14:05;;;;;;;8.60;3.95;;;;;;;2.65;49.73;100898.41;4423369;32;35886;-79
2022/03/10 07:16:52;;;;;;;7.75;4.03;;;;;;;2.86;49.08;100898.94;4412549;32;34571;-78
2022/03/10 07:19:39;;;;;;;7.37;3.20;;;;;;;2.49;48.87;100907.13;4412882;32;34110;-78
2022/03/10 07:22:25;;;;;;;9.13;4.32;;;;;;;2.91;48.02;100909.94;4412120;32;34590;-79
2022/03/10 07:25:13;;;;;;;9.27;3.70;;;;;;;3.42;46.72;100905.84;4412988;32;35029;-78
2022/03/10 07:27:59;;;;;;;10.05;4.68;;;;;;;3.17;47.30;100906.00;4427588;32;34845;-76
2022/03/10 07:30:46;;;;;;;7.87;4.20;;;;;;;2.49;49.29;100920.66;4425916;32;34100;-77
2022/03/10 07:33:32;;;;;;;9.50;3.97;;;;;;;2.44;49.78;100912.38;4429045;32;35568;-77
2022/03/10 07:36:19;;;;;;;8.48;4.68;;;;;;;2.44;49.70;100915.09;4436802;32;35969;-78
2022/03/10 07:39:05;;;;;;;10.75;4.22;;;;;;;2.57;49.41;100917.63;4444620;32;33619;-77
2022/03/10 07:41:56;;;;;;;8.88;4.35;;;;;;;2.35;49.55;100911.03;4445857;32;34163;-76
2022/03/10 07:44:43;;;;;;;11.12;4.78;;;;;;;2.03;50.26;100913.88;4446440;32;34660;-78
2022/03/10 07:47:29;;;;;;;9.27;3.90;;;;;;;2.35;49.53;100917.25;4448609;32;35069;-76
2022/03/10 07:50:15;;;;;;;8.85;3.95;;;;;;;2.63;48.31;100916.72;4430683;32;34795;-77
2022/03/10 07:53:02;;;;;;;10.63;4.07;;;;;;;2.59;47.84;100918.25;4433259;32;35045;-78
2022/03/10 07:55:54;;;;;;;7.87;3.85;;;;;;;3.06;47.52;100914.91;4432336;32;35535;-77
2022/03/10 07:58:40;;;;;;;8.05;3.90;;;;;;;2.77;46.15;100919.28;4423251;32;34933;-77
2022/03/10 08:01:27;;;;;;;10.20;4.43;;;;;;;3.39;46.38;100919.84;4424326;32;34803;-77
2022/03/10 08:04:13;;;;;;;12.48;3.87;;;;;;;4.27;43.97;100912.72;4430548;32;34291;-77
2022/03/10 08:06:59;;;;;;;10.48;4.45;;;;;;;4.43;42.85;100906.53;4442562;32;34802;-78
2022/03/10 08:09:46;;;;;;;11.38;4.05;;;;;;;4.51;43.00;100919.72;4442845;32;35937;-78
2022/03/10 08:12:34;;;;;;;6.95;3.37;;;;;;;4.63;42.33;100921.59;4426548;32;34617;-78
2022/03/10 08:15:21;;;;;;;10.63;4.05;;;;;;;4.58;41.92;100918.78;4430941;32;34038;-75
2022/03/10 08:18:07;;;;;;;7.87;3.60;;;;;;;4.38;41.47;100919.16;4425985;32;35631;-75
2022/03/10 08:20:55;;;;;;;8.13;3.80;;;;;;;4.87;42.09;100923.19;4440451;32;35580;-78
2022/03/10 08:23:42;;;;;;;7.87;3.80;;;;;;;5.17;41.04;100919.38;4420268;32;35964;-76
2022/03/10 08:26:31;;;;;;;9.57;3.58;;;;;;;4.23;41.45;100934.06;4434719;32;34134;-77
2022/03/10 08:29:18;;;;;;;9.77;4.07;;;;;;;5.03;39.90;100916.13;4422509;32;35542;-78
2022/03/10 08:32:05;;;;;;;10.55;4.20;;;;;;;3.88;40.75;100920.50;4423610;32;34611;-78
2022/03/10 08:34:51;;;;;;;9.60;4.03;;;;;;;3.40;42.81;100916.09;4433695;32;35555;-78
2022/03/10 08:37:39;;;;;;;7.85;3.60;;;;;;;4.48;41.55;100925.66;4422932;32;35114;-78
2022/03/10 08:40:29;;;;;;;10.98;4.35;;;;;;;4.52;40.80;100928.69;4414074;32;34580;-75
2022/03/10 08:43:15;;;;;;;8.45;4.07;;;;;;;4.45;40.48;100919.88;4423532;32;34920;-76
2022/03/10 08:46:02;;;;;;;7.72;3.85;;;;;;;4.50;40.40;100912.66;4423584;32;35220;-75
2022/03/10 08:48:48;;;;;;;8.77;3.83;;;;;;;4.15;40.39;100920.03;4424708;32;34503;-76
2022/03/10 08:51:34;;;;;;;9.20;4.05;;;;;;;4.38;41.18;100911.03;4424029;32;34565;-76
2022/03/10 08:54:21;;;;;;;7.85;4.10;;;;;;;4.77;40.45;100912.09;4415129;32;35398;-77
2022/03/10 08:57:07;;;;;;;9.20;4.87;;;;;;;5.44;39.21;100916.91;4428430;32;34873;-75
2022/03/10 08:59:54;;;;;;;8.63;3.97;;;;;;;5.18;39.05;100919.16;4429041;32;33895;-76
2022/03/10 09:02:41;;;;;;;8.48;4.10;;;;;;;5.99;38.48;100923.50;4425114;32;34599;-75
2022/03/10 09:05:28;;;;;;;13.75;4.12;;;;;;;5.74;37.34;100926.62;4423977;32;35064;-76
2022/03/10 09:08:14;;;;;;;7.10;3.67;;;;;;;5.87;37.26;100924.41;4413453;32;34217;-75
2022/03/10 09:11:02;;;;;;;7.50;3.08;;;;;;;6.38;35.69;100926.25;4425652;32;34096;-76
2022/03/10 09:13:48;;;;;;;7.70;3.20;;;;;;;6.58;31.98;100923.78;4429650;32;35523;-76
2022/03/10 09:16:35;;;;;;;6.68;2.92;;;;;;;6.65;31.72;100921.69;4429185;32;34859;-75
2022/03/10 09:19:21;;;;;;;6.97;3.40;;;;;;;6.47;31.81;100924.75;4410390;32;36707;-75
2022/03/10 09:22:08;;;;;;;6.68;3.03;;;;;;;7.21;30.65;100925.06;4415073;32;34462;-76
2022/03/10 09:24:55;;;;;;;7.45;3.03;;;;;;;7.21;30.02;100929.69;4424242;32;36159;-76
2022/03/10 09:27:41;;;;;;;7.82;3.10;;;;;;;6.44;29.15;100931.50;4415404;32;34963;-76
2022/03/10 09:30:28;;;;;;;7.28;3.35;;;;;;;6.99;29.84;100937.88;4426025;32;34466;-76
2022/03/10 09:33:15;;;;;;;5.25;3.10;;;;;;;7.40;28.71;100944.59;4427127;32;35610;-76
2022/03/10 09:36:01;;;;;;;10.15;3.08;;;;;;;7.68;28.92;100939.09;4417646;32;35275;-76
2022/03/10 09:38:48;;;;;;;7.37;3.37;;;;;;;7.84;28.57;100938.97;4436067;32;35964;-76
2022/03/10 09:41:33;;;;;;;6.62;3.22;;;;;;;9.14;28.53;100932.03;4435203;32;34381;-75
2022/03/10 09:44:20;;;;;;;5.95;3.40;;;;;;;7.19;28.48;100940.84;4436034;32;35040;-75
2022/03/10 09:47:08;;;;;;;5.97;3.12;;;;;;;7.51;28.56;100937.31;4448147;32;34228;-76
2022/03/10 09:49:55;;;;;;;7.20;3.60;;;;;;;8.01;28.53;100938.84;4437094;32;35924;-77
2022/03/10 09:52:43;;;;;;;7.50;4.00;;;;;;;8.21;27.74;100942.78;4437855;32;35691;-76
2022/03/10 09:55:29;;;;;;;10.77;3.53;;;;;;;8.70;27.29;100939.81;4449063;32;34318;-76
2022/03/10 09:58:16;;;;;;;6.40;3.03;;;;;;;6.66;28.77;100950.59;4448406;32;34543;-75
2022/03/10 10:01:06;;;;;;;7.15;3.08;;;;;;;8.07;28.92;100943.25;4449144;32;36011;-76
2022/03/10 10:03:53;;;;;;;8.65;4.10;;;;;;;9.40;26.31;100941.09;4438534;32;34610;-75
2022/03/10 10:07:21;;;;;;;7.62;3.33;;;;;;;7.32;30.48;100941.53;4449234;32;33806;-75
2022/03/10 10:10:10;;;;;;;7.05;3.03;;;;;;;8.23;26.13;100943.34;4370181;32;35549;-76
2022/03/10 10:12:56;;;;;;;5.32;2.78;;;;;;;9.52;25.44;100934.56;4360357;32;34937;-78
2022/03/10 10:15:43;;;;;;;7.62;3.30;;;;;;;9.91;24.34;100951.28;4428819;32;34408;-79
2022/03/10 10:18:31;;;;;;;7.10;3.00;;;;;;;10.46;24.67;100948.75;4448624;32;36995;-78
2022/03/10 10:21:30;;;;;;;6.85;2.95;;;;;;;10.61;24.05;100945.13;4448222;32;34352;-78
2022/03/10 10:24:18;;;;;;;5.30;2.65;;;;;;;10.85;23.85;100945.34;4435663;32;34628;-76
2022/03/10 10:27:20;;;;;;;5.57;2.70;;;;;;;10.51;23.31;100960.50;4448187;32;34438;-78
2022/03/10 10:30:08;;;;;;;7.35;2.80;;;;;;;8.29;25.30;100951.31;4434384;32;36221;-78
2022/03/10 10:32:55;;;;;;;6.85;2.83;;;;;;;10.77;22.79;100964.00;4448055;32;34525;-76
2022/03/10 10:35:43;;;;;;;5.95;2.62;;;;;;;10.55;22.02;100958.03;4446900;32;34656;-77
2022/03/10 10:38:30;;;;;;;8.30;3.25;;;;;;;10.18;22.98;100958.34;4431327;32;35270;-75
2022/03/10 10:41:37;;;;;;;4.72;2.35;;;;;;;10.20;22.46;100962.47;4422463;32;33483;-76
2022/03/10 10:44:24;;;;;;;6.75;2.65;;;;;;;6.41;25.32;100950.25;4425414;32;36870;-77
2022/03/10 10:47:11;;;;;;;7.30;2.60;;;;;;;6.06;27.29;100967.69;4436147;32;34945;-79
2022/03/10 10:50:05;;;;;;;8.43;2.30;;;;;;;6.84;27.25;100957.62;4421944;32;35440;-74
2022/03/10 10:52:51;;;;;;;7.62;2.78;;;;;;;9.07;24.17;100955.25;4426474;32;34382;-74
2022/03/10 10:55:41;;;;;;;4.55;2.40;;;;;;;9.46;24.22;100956.44;4437099;32;34592;-73
2022/03/10 10:58:27;;;;;;;5.20;2.70;;;;;;;9.67;23.24;100959.19;4417802;32;35938;-73
2022/03/10 11:01:32;;;;;;;7.18;3.45;;;;;;;9.93;21.97;100954.53;4422148;32;35513;-74
2022/03/10 11:04:19;;;;;;;6.53;2.58;;;;;;;9.46;22.63;100953.69;4425612;32;33781;-73
2022/03/10 11:07:08;;;;;;;5.70;2.45;;;;;;;9.64;22.79;100959.72;4423417;32;34424;-73
2022/03/10 11:09:54;;;;;;;4.97;2.70;;;;;;;10.03;21.26;100959.19;4428694;32;34491;-73
2022/03/10 11:12:41;;;;;;;6.75;2.53;;;;;;;11.56;19.89;100952.34;4433318;32;35126;-74
2022/03/10 11:15:27;;;;;;;5.20;2.47;;;;;;;11.52;20.27;100941.09;4425583;32;34114;-73
2022/03/10 11:18:14;;;;;;;5.32;2.67;;;;;;;11.89;19.90;100943.28;4435510;32;36185;-73
2022/03/10 11:21:20;;;;;;;7.72;2.87;;;;;;;9.51;22.49;100950.16;4422290;32;35014;-72
2022/03/10 11:24:12;;;;;;;7.82;3.17;;;;;;;10.19;22.97;100949.03;4427729;32;34322;-72
2022/03/10 11:27:08;;;;;;;5.40;2.90;;;;;;;10.12;23.05;100943.84;4424652;32;33851;-72
2022/03/10 11:29:55;;;;;;;10.52;3.60;;;;;;;10.43;22.16;100949.31;4437381;32;35545;-72
2022/03/10 11:32:41;;;;;;;6.70;3.28;;;;;;;8.94;23.29;100932.81;4434872;32;34930;-73
2022/03/10 11:35:39;;;;;;;6.75;3.25;;;;;;;8.60;23.99;100932.41;4439599;32;34600;-72
2022/03/10 11:38:56;;;;;;;6.25;3.20;;;;;;;10.22;23.41;100946.59;4424711;32;33701;-72
2022/03/10 11:41:47;;;;;;;5.10;2.65;;;;;;;8.45;24.27;100930.41;4421025;32;34609;-72
2022/03/10 11:44:37;;;;;;;7.37;2.87;;;;;;;9.36;23.33;100926.34;4427307;32;35643;-72
2022/03/10 11:47:25;;;;;;;6.50;2.62;;;;;;;9.45;22.41;100929.38;4437091;32;34791;-72
2022/03/10 11:50:21;;;;;;;6.53;3.53;;;;;;;8.82;23.77;100915.78;4433973;32;34951;-72
2022/03/10 11:53:12;;;;;;;7.50;3.50;;;;;;;8.89;25.13;100919.13;4439545;32;34638;-72
2022/03/10 11:55:58;;;;;;;7.62;2.90;;;;;;;7.78;26.68;100922.84;4436574;32;35934;-72
2022/03/10 11:58:45;;;;;;;9.10;3.47;;;;;;;7.24;27.37;100918.25;4437143;32;35136;-72
2022/03/10 12:01:42;;;;;;;5.30;2.80;;;;;;;7.92;26.28;100920.50;4421645;32;35126;-72
2022/03/10 12:04:36;;;;;;;9.98;4.68;;;;;;;8.52;25.95;100930.97;4436333;32;34630;-73
2022/03/10 12:07:27;;;;;;;8.07;2.92;;;;;;;8.71;25.20;100920.44;4425769;32;35015;-75
2022/03/10 12:10:14;;;;;;;8.27;3.25;;;;;;;8.37;24.78;100930.88;4428806;32;34310;-73
2022/03/10 12:13:23;;;;;;;6.68;3.37;;;;;;;8.30;25.07;100928.37;4439761;32;34217;-74
2022/03/10 12:16:22;;;;;;;5.93;2.90;;;;;;;9.22;24.04;100927.94;4429242;32;35577;-73
2022/03/10 12:19:09;;;;;;;7.35;3.78;;;;;;;8.94;24.51;100921.87;4425679;32;35618;-74
2022/03/10 12:21:55;;;;;;;6.25;2.92;;;;;;;8.70;24.13;100915.22;4439249;32;37138;-74
2022/03/10 12:24:42;;;;;;;6.82;3.12;;;;;;;7.92;25.79;100915.84;4442555;32;34807;-74
2022/03/10 12:27:28;;;;;;;7.03;2.60;;;;;;;8.70;24.52;100913.28;4443340;32;34719;-75
2022/03/10 12:30:18;;;;;;;5.75;2.85;;;;;;;8.32;24.59;100909.00;4440610;32;34548;-75
2022/03/10 12:33:04;;;;;;;5.72;3.20;;;;;;;7.63;25.30;100920.81;4427398;32;34312;-74
2022/03/10 12:35:54;;;;;;;5.60;2.42;;;;;;;7.35;25.47;100924.66;4441371;32;34113;-74
2022/03/10 12:38:45;;;;;;;6.25;2.70;;;;;;;7.79;25.20;100921.75;4438408;32;35531;-74
2022/03/10 12:41:34;;;;;;;21.73;4.43;;;;;;;8.08;24.58;100914.87;4423438;32;35955;-74
2022/03/10 12:44:22;;;;;;;7.25;2.95;;;;;;;8.19;23.78;100909.47;4440874;32;34930;-72
2022/03/10 12:47:09;;;;;;;6.07;2.90;;;;;;;8.81;23.58;100913.34;4439060;32;35351;-73
2022/03/10 12:49:57;;;;;;;6.50;2.85;;;;;;;7.43;24.54;100910.56;4426445;32;34647;-72
2022/03/10 12:52:47;;;;;;;3.67;1.90;;;;;;;7.93;24.76;100916.66;4427423;32;34957;-73
2022/03/10 12:55:35;;;;;;;6.22;2.37;;;;;;;8.83;23.07;100917.47;4416926;32;34537;-73
2022/03/10 12:58:28;;;;;;;5.85;2.25;;;;;;;9.91;22.25;100916.50;4440786;32;35040;-72
2022/03/10 13:01:15;;;;;;;4.85;2.60;;;;;;;10.75;21.81;100916.84;4438174;32;34721;-74
2022/03/10 13:04:02;;;;;;;5.45;2.87;;;;;;;9.98;21.38;100909.91;4415209;32;35900;-73
2022/03/10 13:06:58;;;;;;;8.50;2.72;;;;;;;9.94;21.16;100917.06;4437650;32;34732;-73
2022/03/10 13:10:11;;;;;;;5.12;2.75;;;;;;;8.20;23.07;100908.41;4431733;32;33730;-74